Relatórios de METAR próximas

 

LPPR - Porto, Portugal, PT
Distance from station: N 52km
Actualizado: 18/10/2021 09:00
Muito Nublado
Muito Nublado
 Vento de S
Vento: S 11 km/h
Temperatura: 19°C
Ponto de Orvalho: 19°C
Humidade: 100%
Barómetro: 1021 hPa
Nuvens: Muito Nublado
Visibilidade: 10 km
Cloud details: Parc. Nublado 152 m
Muito Nublado 274 m
2021/10/18 08:00 LPPR 180800Z 17006KT 9999 SCT005 BKN009 19/19 Q1021